DLH4NX EDDF-ENGM
Flight info
| Callsign | DLH4NX |
|---|---|
| Flight time | 1h 48m |
| Altitude | 37000 |
| Route | MARUN3W/25C MARUN Y150 TOLGI DCT ALASA DCT INVOL DCT SABAK/N0438F380 L997 LUNIP |
| Aircraft | A320/M-SDE3FGHIRWY/LB1 |
Departure
| Time | 2026-05-07 13:00 |
|---|---|
| Airport | Frankfurt Main Airport (EDDF) |
Arrival
| Time | 2026-05-07 14:49 |
|---|---|
| Airport | Oslo-Gardermoen International Airport (ENGM) |
| Time | Latitude | Longitude | Altitude | Speed | Heading |
|---|---|---|---|---|---|
| 2026-05-07 12:31 | 50.04883 | 8.57153 | 363 ft | 0 kts | 161° |
| 2026-05-07 12:55 | 50.04863 | 8.57133 | 359 ft | 8 kts | 237° |
| 2026-05-07 12:56 | 50.04828 | 8.57057 | 358 ft | 10 kts | 204° |
| 2026-05-07 12:56 | 50.04742 | 8.56998 | 358 ft | 15 kts | 204° |
| 2026-05-07 12:56 | 50.04641 | 8.56928 | 362 ft | 17 kts | 202° |
| 2026-05-07 12:56 | 50.04527 | 8.56881 | 359 ft | 17 kts | 194° |
| 2026-05-07 12:57 | 50.04409 | 8.56846 | 363 ft | 18 kts | 188° |
| 2026-05-07 12:57 | 50.04312 | 8.56824 | 360 ft | 13 kts | 174° |
| 2026-05-07 12:57 | 50.04279 | 8.56918 | 359 ft | 11 kts | 71° |
| 2026-05-07 12:57 | 50.04317 | 8.57071 | 362 ft | 17 kts | 69° |
| 2026-05-07 12:58 | 50.04342 | 8.57177 | 365 ft | 15 kts | 69° |
| 2026-05-07 12:58 | 50.04382 | 8.57345 | 361 ft | 18 kts | 70° |
| 2026-05-07 12:58 | 50.04420 | 8.57504 | 361 ft | 10 kts | 69° |
| 2026-05-07 12:58 | 50.04427 | 8.57590 | 364 ft | 7 kts | 100° |
| 2026-05-07 12:59 | 50.04399 | 8.57651 | 370 ft | 6 kts | 154° |
| 2026-05-07 12:59 | 50.04356 | 8.57675 | 364 ft | 9 kts | 159° |
| 2026-05-07 12:59 | 50.04284 | 8.57686 | 362 ft | 11 kts | 200° |
| 2026-05-07 12:59 | 50.04249 | 8.57595 | 365 ft | 12 kts | 250° |
| 2026-05-07 13:00 | 50.04161 | 8.57225 | 365 ft | 71 kts | 250° |
| 2026-05-07 13:00 | 50.03910 | 8.56174 | 352 ft | 133 kts | 249° |
| 2026-05-07 13:00 | 50.03539 | 8.54609 | 543 ft | 164 kts | 249° |
| 2026-05-07 13:00 | 50.03145 | 8.52939 | 1322 ft | 166 kts | 252° |
| 2026-05-07 13:01 | 50.02735 | 8.51210 | 1935 ft | 178 kts | 252° |
| 2026-05-07 13:01 | 50.02074 | 8.49457 | 2376 ft | 200 kts | 227° |
| 2026-05-07 13:01 | 50.00883 | 8.48258 | 2958 ft | 210 kts | 201° |
| 2026-05-07 13:01 | 49.99433 | 8.47822 | 3651 ft | 214 kts | 189° |
| 2026-05-07 13:02 | 49.97958 | 8.47513 | 4347 ft | 215 kts | 189° |
| 2026-05-07 13:02 | 49.96471 | 8.47185 | 5052 ft | 217 kts | 191° |
| 2026-05-07 13:02 | 49.94994 | 8.46585 | 5569 ft | 227 kts | 198° |
| 2026-05-07 13:02 | 49.93408 | 8.45849 | 6031 ft | 248 kts | 198° |
| 2026-05-07 13:03 | 49.91859 | 8.44656 | 6757 ft | 252 kts | 223° |
| 2026-05-07 13:03 | 49.90854 | 8.42472 | 7587 ft | 251 kts | 252° |
| 2026-05-07 13:03 | 49.90647 | 8.39810 | 8451 ft | 251 kts | 280° |
| 2026-05-07 13:03 | 49.91293 | 8.37316 | 9333 ft | 253 kts | 308° |
| 2026-05-07 13:04 | 49.92651 | 8.35583 | 10195 ft | 257 kts | 334° |
| 2026-05-07 13:04 | 49.94341 | 8.34447 | 10701 ft | 276 kts | 336° |
| 2026-05-07 13:04 | 49.96189 | 8.33254 | 10986 ft | 300 kts | 336° |
| 2026-05-07 13:04 | 49.98183 | 8.31971 | 11382 ft | 318 kts | 336° |
| 2026-05-07 13:05 | 50.00248 | 8.30640 | 12076 ft | 324 kts | 336° |
| 2026-05-07 13:05 | 50.02351 | 8.29330 | 12842 ft | 329 kts | 341° |
| 2026-05-07 13:05 | 50.04611 | 8.28669 | 13596 ft | 334 kts | 356° |
| 2026-05-07 13:05 | 50.06946 | 8.28957 | 14291 ft | 340 kts | 11° |
| 2026-05-07 13:06 | 50.09218 | 8.30052 | 14951 ft | 345 kts | 17° |
| 2026-05-07 13:06 | 50.11507 | 8.31258 | 15627 ft | 348 kts | 17° |
| 2026-05-07 13:06 | 50.13813 | 8.32473 | 16282 ft | 352 kts | 17° |
| 2026-05-07 13:06 | 50.16146 | 8.33700 | 16946 ft | 355 kts | 17° |
| 2026-05-07 13:07 | 50.18497 | 8.34932 | 17593 ft | 359 kts | 17° |
| 2026-05-07 13:07 | 50.20880 | 8.36181 | 18242 ft | 363 kts | 18° |
| 2026-05-07 13:07 | 50.23284 | 8.37442 | 18808 ft | 366 kts | 17° |
| 2026-05-07 13:07 | 50.25713 | 8.38713 | 19364 ft | 370 kts | 17° |
| 2026-05-07 13:08 | 50.28161 | 8.39999 | 19940 ft | 373 kts | 17° |
| 2026-05-07 13:08 | 50.30633 | 8.41303 | 20512 ft | 376 kts | 18° |
| 2026-05-07 13:08 | 50.33118 | 8.42641 | 21076 ft | 380 kts | 18° |
| 2026-05-07 13:08 | 50.35621 | 8.44013 | 21629 ft | 382 kts | 18° |
| 2026-05-07 13:09 | 50.38139 | 8.45405 | 22159 ft | 385 kts | 18° |
| 2026-05-07 13:09 | 50.39854 | 8.46353 | 22504 ft | 388 kts | 18° |
| 2026-05-07 13:09 | 50.43241 | 8.48222 | 23184 ft | 392 kts | 19° |
| 2026-05-07 13:09 | 50.45822 | 8.49646 | 23672 ft | 395 kts | 18° |
| 2026-05-07 13:10 | 50.48429 | 8.51063 | 24088 ft | 398 kts | 17° |
| 2026-05-07 13:10 | 50.51075 | 8.52399 | 24515 ft | 400 kts | 16° |
| 2026-05-07 13:10 | 50.53748 | 8.53667 | 24936 ft | 402 kts | 15° |
| 2026-05-07 13:10 | 50.56477 | 8.54924 | 25355 ft | 405 kts | 16° |
| 2026-05-07 13:11 | 50.59188 | 8.56170 | 25755 ft | 408 kts | 16° |
| 2026-05-07 13:11 | 50.61918 | 8.57440 | 26163 ft | 410 kts | 15° |
| 2026-05-07 13:11 | 50.64662 | 8.58734 | 26568 ft | 413 kts | 17° |
| 2026-05-07 13:11 | 50.67416 | 8.60053 | 26964 ft | 415 kts | 16° |
| 2026-05-07 13:12 | 50.70185 | 8.61392 | 27352 ft | 417 kts | 16° |
| 2026-05-07 13:12 | 50.72965 | 8.62745 | 27744 ft | 419 kts | 17° |
| 2026-05-07 13:12 | 50.75763 | 8.64108 | 28125 ft | 422 kts | 16° |
| 2026-05-07 13:12 | 50.78541 | 8.65635 | 28501 ft | 424 kts | 23° |
| 2026-05-07 13:13 | 50.81145 | 8.67851 | 28861 ft | 427 kts | 33° |
| 2026-05-07 13:13 | 50.83497 | 8.70752 | 29221 ft | 430 kts | 43° |
| 2026-05-07 13:13 | 50.85520 | 8.74249 | 29593 ft | 433 kts | 52° |
| 2026-05-07 13:13 | 50.87348 | 8.78055 | 29937 ft | 436 kts | 52° |
| 2026-05-07 13:14 | 50.89182 | 8.81883 | 30267 ft | 438 kts | 52° |
| 2026-05-07 13:14 | 50.91028 | 8.85740 | 30558 ft | 440 kts | 52° |
| 2026-05-07 13:14 | 50.92882 | 8.89618 | 30839 ft | 442 kts | 52° |
| 2026-05-07 13:14 | 50.94745 | 8.93523 | 31102 ft | 445 kts | 52° |
| 2026-05-07 13:15 | 50.96613 | 8.97442 | 31379 ft | 447 kts | 52° |
| 2026-05-07 13:15 | 50.98487 | 9.01376 | 31705 ft | 447 kts | 52° |
| 2026-05-07 13:15 | 51.00360 | 9.05314 | 32104 ft | 446 kts | 52° |
| 2026-05-07 13:15 | 51.02205 | 9.09200 | 32477 ft | 446 kts | 52° |
| 2026-05-07 13:16 | 51.04087 | 9.13182 | 32863 ft | 445 kts | 52° |
| 2026-05-07 13:16 | 51.05947 | 9.17120 | 33219 ft | 445 kts | 53° |
| 2026-05-07 13:16 | 51.07840 | 9.21011 | 33582 ft | 444 kts | 47° |
| 2026-05-07 13:16 | 51.10042 | 9.24435 | 33927 ft | 443 kts | 38° |
| 2026-05-07 13:17 | 51.12564 | 9.27220 | 34240 ft | 441 kts | 28° |
| 2026-05-07 13:17 | 51.15296 | 9.29280 | 34484 ft | 440 kts | 19° |
| 2026-05-07 13:17 | 51.18271 | 9.30636 | 34719 ft | 440 kts | 11° |
| 2026-05-07 13:17 | 51.21270 | 9.31661 | 34945 ft | 441 kts | 12° |
| 2026-05-07 13:18 | 51.24275 | 9.32693 | 35164 ft | 442 kts | 11° |
| 2026-05-07 13:18 | 51.27288 | 9.33735 | 35377 ft | 444 kts | 11° |
| 2026-05-07 13:18 | 51.30308 | 9.34786 | 35587 ft | 445 kts | 12° |
| 2026-05-07 13:18 | 51.33335 | 9.35845 | 35793 ft | 446 kts | 12° |
| 2026-05-07 13:19 | 51.36366 | 9.36906 | 36016 ft | 447 kts | 11° |
| 2026-05-07 13:19 | 51.39405 | 9.37966 | 36254 ft | 447 kts | 11° |
| 2026-05-07 13:19 | 51.42451 | 9.39032 | 36458 ft | 448 kts | 11° |
| 2026-05-07 13:19 | 51.45496 | 9.40094 | 36678 ft | 448 kts | 11° |
| 2026-05-07 13:20 | 51.48544 | 9.41155 | 36894 ft | 449 kts | 11° |
| 2026-05-07 13:20 | 51.51601 | 9.42224 | 37031 ft | 449 kts | 11° |
| 2026-05-07 13:20 | 51.57681 | 9.44370 | 37053 ft | 446 kts | 11° |
| 2026-05-07 13:21 | 51.63740 | 9.46508 | 37054 ft | 446 kts | 11° |
| 2026-05-07 13:21 | 51.69794 | 9.48638 | 37064 ft | 445 kts | 11° |
| 2026-05-07 13:22 | 51.75851 | 9.50779 | 37058 ft | 445 kts | 12° |
| 2026-05-07 13:22 | 51.81905 | 9.52926 | 37057 ft | 445 kts | 10° |
| 2026-05-07 13:23 | 51.88045 | 9.54005 | 37058 ft | 444 kts | 4° |
| 2026-05-07 13:23 | 51.94200 | 9.54829 | 37058 ft | 444 kts | 4° |
| 2026-05-07 13:24 | 52.00354 | 9.55657 | 37054 ft | 444 kts | 4° |
| 2026-05-07 13:24 | 52.06516 | 9.56487 | 37054 ft | 444 kts | 4° |
| 2026-05-07 13:25 | 52.12677 | 9.57327 | 37062 ft | 444 kts | 4° |
| 2026-05-07 13:25 | 52.18836 | 9.58160 | 37070 ft | 444 kts | 4° |
| 2026-05-07 13:26 | 52.24998 | 9.58997 | 37075 ft | 444 kts | 4° |
| 2026-05-07 13:26 | 52.31162 | 9.59842 | 37078 ft | 444 kts | 4° |
| 2026-05-07 13:27 | 52.37325 | 9.60705 | 37081 ft | 445 kts | 4° |
| 2026-05-07 13:27 | 52.43492 | 9.61553 | 37086 ft | 445 kts | 4° |
| 2026-05-07 13:28 | 52.49654 | 9.62397 | 37087 ft | 445 kts | 4° |
| 2026-05-07 13:28 | 52.55805 | 9.63237 | 37087 ft | 444 kts | 4° |
| 2026-05-07 13:29 | 52.61969 | 9.64091 | 37088 ft | 444 kts | 4° |
| 2026-05-07 13:29 | 52.68131 | 9.64961 | 37088 ft | 445 kts | 4° |
| 2026-05-07 13:30 | 52.74293 | 9.65822 | 37085 ft | 444 kts | 4° |
| 2026-05-07 13:30 | 52.80453 | 9.66677 | 37086 ft | 444 kts | 4° |
| 2026-05-07 13:31 | 52.85612 | 9.67403 | 37085 ft | 444 kts | 4° |
| 2026-05-07 13:32 | 52.98763 | 9.69267 | 37078 ft | 444 kts | 4° |
| 2026-05-07 13:32 | 53.04909 | 9.70133 | 37078 ft | 444 kts | 4° |
| 2026-05-07 13:33 | 53.11072 | 9.71005 | 37073 ft | 445 kts | 4° |
| 2026-05-07 13:33 | 53.17240 | 9.71890 | 37075 ft | 445 kts | 4° |
| 2026-05-07 13:34 | 53.26488 | 9.73214 | 37077 ft | 445 kts | 4° |
| 2026-05-07 13:35 | 53.32654 | 9.74105 | 37074 ft | 445 kts | 4° |
| 2026-05-07 13:35 | 53.38826 | 9.74986 | 37083 ft | 445 kts | 4° |
| 2026-05-07 13:36 | 53.44987 | 9.75868 | 37094 ft | 445 kts | 4° |
| 2026-05-07 13:36 | 53.51162 | 9.76756 | 37093 ft | 445 kts | 4° |
| 2026-05-07 13:37 | 53.57331 | 9.77653 | 37088 ft | 445 kts | 4° |
| 2026-05-07 13:37 | 53.63494 | 9.78555 | 37087 ft | 445 kts | 4° |
| 2026-05-07 13:38 | 53.69665 | 9.79455 | 37082 ft | 445 kts | 3° |
| 2026-05-07 13:38 | 53.75838 | 9.80353 | 37077 ft | 445 kts | 4° |
| 2026-05-07 13:39 | 53.82005 | 9.81274 | 37071 ft | 445 kts | 4° |
| 2026-05-07 13:39 | 53.88178 | 9.82188 | 37080 ft | 445 kts | 3° |
| 2026-05-07 13:40 | 53.94349 | 9.83098 | 37083 ft | 445 kts | 4° |
| 2026-05-07 13:40 | 54.00520 | 9.84006 | 37087 ft | 445 kts | 4° |
| 2026-05-07 13:41 | 54.06696 | 9.84923 | 37089 ft | 445 kts | 4° |
| 2026-05-07 13:41 | 54.12864 | 9.85839 | 37097 ft | 445 kts | 4° |
| 2026-05-07 13:42 | 54.19033 | 9.86766 | 37101 ft | 445 kts | 4° |
| 2026-05-07 13:42 | 54.25193 | 9.87692 | 37118 ft | 444 kts | 4° |
| 2026-05-07 13:43 | 54.31354 | 9.88623 | 37115 ft | 444 kts | 4° |
| 2026-05-07 13:43 | 54.37505 | 9.89556 | 37123 ft | 444 kts | 4° |
| 2026-05-07 13:44 | 54.42652 | 9.90326 | 37126 ft | 443 kts | 4° |
| 2026-05-07 13:44 | 54.48790 | 9.91256 | 37128 ft | 442 kts | 4° |
| 2026-05-07 13:45 | 54.54921 | 9.92188 | 37124 ft | 442 kts | 4° |
| 2026-05-07 13:45 | 54.61047 | 9.93115 | 37133 ft | 442 kts | 4° |
| 2026-05-07 13:46 | 54.67168 | 9.94054 | 37134 ft | 441 kts | 4° |
| 2026-05-07 13:46 | 54.73270 | 9.95000 | 37133 ft | 440 kts | 4° |
| 2026-05-07 13:47 | 54.79363 | 9.95945 | 37132 ft | 439 kts | 5° |
| 2026-05-07 13:47 | 54.85359 | 9.98018 | 37147 ft | 440 kts | 13° |
| 2026-05-07 13:48 | 54.91306 | 10.00468 | 37152 ft | 439 kts | 12° |
| 2026-05-07 13:48 | 54.97250 | 10.02918 | 37151 ft | 439 kts | 12° |
| 2026-05-07 13:49 | 55.03191 | 10.05378 | 37151 ft | 438 kts | 12° |
| 2026-05-07 13:49 | 55.09125 | 10.07838 | 37142 ft | 438 kts | 12° |
| 2026-05-07 13:50 | 55.15057 | 10.10306 | 37137 ft | 438 kts | 12° |
| 2026-05-07 13:50 | 55.20981 | 10.12785 | 37132 ft | 438 kts | 12° |
| 2026-05-07 13:51 | 55.26905 | 10.15276 | 37124 ft | 437 kts | 12° |
| 2026-05-07 13:51 | 55.32818 | 10.17770 | 37125 ft | 437 kts | 12° |
| 2026-05-07 13:52 | 55.38735 | 10.20266 | 37123 ft | 437 kts | 12° |
| 2026-05-07 13:52 | 55.44651 | 10.22767 | 37122 ft | 437 kts | 12° |
| 2026-05-07 13:53 | 55.50560 | 10.25261 | 37122 ft | 437 kts | 12° |
| 2026-05-07 13:53 | 55.56463 | 10.27773 | 37119 ft | 436 kts | 12° |
| 2026-05-07 13:54 | 55.62366 | 10.30302 | 37117 ft | 436 kts | 12° |
| 2026-05-07 13:54 | 55.68268 | 10.32843 | 37117 ft | 436 kts | 12° |
| 2026-05-07 13:55 | 55.74169 | 10.35379 | 37118 ft | 436 kts | 12° |
| 2026-05-07 13:55 | 55.80066 | 10.37915 | 37117 ft | 436 kts | 12° |
| 2026-05-07 13:56 | 55.85968 | 10.40462 | 37117 ft | 436 kts | 12° |
| 2026-05-07 13:56 | 55.91860 | 10.43025 | 37126 ft | 436 kts | 12° |
| 2026-05-07 13:57 | 55.97759 | 10.45598 | 37124 ft | 436 kts | 12° |
| 2026-05-07 13:57 | 56.03655 | 10.48165 | 37118 ft | 436 kts | 12° |
| 2026-05-07 13:58 | 56.09546 | 10.50735 | 37116 ft | 436 kts | 12° |
| 2026-05-07 13:58 | 56.15440 | 10.53323 | 37130 ft | 436 kts | 12° |
| 2026-05-07 13:59 | 56.21330 | 10.55929 | 37129 ft | 436 kts | 12° |
| 2026-05-07 13:59 | 56.27221 | 10.58526 | 37153 ft | 436 kts | 12° |
| 2026-05-07 14:00 | 56.33110 | 10.61139 | 37148 ft | 436 kts | 12° |
| 2026-05-07 14:00 | 56.38992 | 10.63774 | 37162 ft | 436 kts | 12° |
| 2026-05-07 14:01 | 56.44873 | 10.66402 | 37157 ft | 435 kts | 12° |
| 2026-05-07 14:01 | 56.50752 | 10.69033 | 37148 ft | 435 kts | 12° |
| 2026-05-07 14:02 | 56.56626 | 10.71670 | 37140 ft | 435 kts | 12° |
| 2026-05-07 14:02 | 56.62501 | 10.74315 | 37140 ft | 435 kts | 12° |
| 2026-05-07 14:03 | 56.68368 | 10.76974 | 37143 ft | 435 kts | 11° |
| 2026-05-07 14:03 | 56.74096 | 10.79568 | 37140 ft | 435 kts | 11° |
| 2026-05-07 14:04 | 56.79715 | 10.82121 | 37134 ft | 434 kts | 11° |
| 2026-05-07 14:04 | 56.85583 | 10.84797 | 37137 ft | 434 kts | 11° |
| 2026-05-07 14:05 | 56.91448 | 10.87474 | 37155 ft | 434 kts | 11° |
| 2026-05-07 14:05 | 56.97315 | 10.90177 | 37146 ft | 435 kts | 11° |
| 2026-05-07 14:06 | 57.03187 | 10.92889 | 37139 ft | 435 kts | 11° |
| 2026-05-07 14:06 | 57.09057 | 10.95610 | 37137 ft | 435 kts | 11° |
| 2026-05-07 14:07 | 57.14928 | 10.98329 | 37139 ft | 435 kts | 11° |
| 2026-05-07 14:07 | 57.20801 | 11.01050 | 37148 ft | 435 kts | 11° |
| 2026-05-07 14:08 | 57.26677 | 11.03801 | 37144 ft | 436 kts | 11° |
| 2026-05-07 14:08 | 57.32557 | 11.06562 | 37141 ft | 436 kts | 11° |
| 2026-05-07 14:09 | 57.38439 | 11.09322 | 37139 ft | 436 kts | 11° |
| 2026-05-07 14:09 | 57.44323 | 11.12091 | 37160 ft | 436 kts | 11° |
| 2026-05-07 14:10 | 57.50209 | 11.14873 | 37150 ft | 437 kts | 11° |
| 2026-05-07 14:10 | 57.56101 | 11.17680 | 37144 ft | 437 kts | 11° |
| 2026-05-07 14:11 | 57.62000 | 11.20501 | 37140 ft | 438 kts | 11° |
| 2026-05-07 14:11 | 57.67960 | 11.22298 | 37140 ft | 431 kts | 358° |
| 2026-05-07 14:12 | 57.73957 | 11.22641 | 37151 ft | 432 kts | 358° |
| 2026-05-07 14:12 | 57.79968 | 11.23005 | 37151 ft | 432 kts | 358° |
| 2026-05-07 14:13 | 57.85986 | 11.23354 | 37145 ft | 433 kts | 358° |
| 2026-05-07 14:13 | 57.92003 | 11.23705 | 37142 ft | 433 kts | 358° |
| 2026-05-07 14:14 | 57.98026 | 11.24079 | 37143 ft | 433 kts | 358° |
| 2026-05-07 14:14 | 58.04046 | 11.24453 | 37160 ft | 433 kts | 357° |
| 2026-05-07 14:15 | 58.10072 | 11.24806 | 37148 ft | 433 kts | 357° |
| 2026-05-07 14:15 | 58.16098 | 11.25170 | 37145 ft | 433 kts | 357° |
| 2026-05-07 14:16 | 58.22129 | 11.25538 | 37142 ft | 433 kts | 357° |
| 2026-05-07 14:16 | 58.28153 | 11.25901 | 37142 ft | 433 kts | 357° |
| 2026-05-07 14:17 | 58.34186 | 11.26264 | 37139 ft | 434 kts | 357° |
| 2026-05-07 14:17 | 58.40214 | 11.26637 | 37139 ft | 434 kts | 357° |
| 2026-05-07 14:18 | 58.46245 | 11.26993 | 37155 ft | 433 kts | 357° |
| 2026-05-07 14:18 | 58.52275 | 11.27359 | 37152 ft | 433 kts | 357° |
| 2026-05-07 14:19 | 58.58273 | 11.27743 | 36640 ft | 430 kts | 357° |
| 2026-05-07 14:19 | 58.61263 | 11.27928 | 36047 ft | 429 kts | 356° |
| 2026-05-07 14:19 | 58.64228 | 11.28108 | 35606 ft | 423 kts | 356° |
| 2026-05-07 14:19 | 58.67148 | 11.28286 | 35198 ft | 418 kts | 356° |
| 2026-05-07 14:20 | 58.70037 | 11.28472 | 34797 ft | 412 kts | 356° |
| 2026-05-07 14:20 | 58.72883 | 11.28656 | 34400 ft | 407 kts | 356° |
| 2026-05-07 14:20 | 58.75696 | 11.28838 | 33994 ft | 402 kts | 356° |
| 2026-05-07 14:20 | 58.78473 | 11.29015 | 33504 ft | 397 kts | 356° |
| 2026-05-07 14:21 | 58.81227 | 11.29188 | 33000 ft | 394 kts | 355° |
| 2026-05-07 14:21 | 58.83955 | 11.29357 | 32544 ft | 391 kts | 355° |
| 2026-05-07 14:21 | 58.86663 | 11.29525 | 32062 ft | 388 kts | 355° |
| 2026-05-07 14:21 | 58.89349 | 11.29694 | 31574 ft | 385 kts | 355° |
| 2026-05-07 14:22 | 58.92013 | 11.29859 | 31093 ft | 382 kts | 355° |
| 2026-05-07 14:22 | 58.94661 | 11.30022 | 30621 ft | 379 kts | 354° |
| 2026-05-07 14:22 | 58.97289 | 11.30181 | 30146 ft | 377 kts | 354° |
| 2026-05-07 14:22 | 58.99906 | 11.30344 | 29599 ft | 374 kts | 355° |
| 2026-05-07 14:23 | 59.02497 | 11.30504 | 29070 ft | 372 kts | 355° |
| 2026-05-07 14:23 | 59.05072 | 11.30662 | 28556 ft | 369 kts | 355° |
| 2026-05-07 14:23 | 59.06768 | 11.30770 | 28217 ft | 367 kts | 355° |
| 2026-05-07 14:23 | 59.09316 | 11.30939 | 27713 ft | 365 kts | 355° |
| 2026-05-07 14:24 | 59.11841 | 11.31111 | 27263 ft | 362 kts | 354° |
| 2026-05-07 14:24 | 59.14350 | 11.31284 | 26804 ft | 359 kts | 354° |
| 2026-05-07 14:24 | 59.16838 | 11.31460 | 26343 ft | 357 kts | 356° |
| 2026-05-07 14:24 | 59.19315 | 11.32179 | 25881 ft | 363 kts | 7° |
| 2026-05-07 14:25 | 59.21739 | 11.33623 | 25415 ft | 364 kts | 11° |
| 2026-05-07 14:25 | 59.24148 | 11.35134 | 24970 ft | 362 kts | 11° |
| 2026-05-07 14:25 | 59.26539 | 11.36641 | 24536 ft | 360 kts | 11° |
| 2026-05-07 14:25 | 59.28919 | 11.38148 | 24097 ft | 358 kts | 11° |
| 2026-05-07 14:26 | 59.31286 | 11.39648 | 23660 ft | 356 kts | 11° |
| 2026-05-07 14:26 | 59.33636 | 11.41140 | 23172 ft | 354 kts | 11° |
| 2026-05-07 14:26 | 59.35971 | 11.42621 | 22713 ft | 352 kts | 11° |
| 2026-05-07 14:26 | 59.38293 | 11.44093 | 22268 ft | 349 kts | 11° |
| 2026-05-07 14:27 | 59.40598 | 11.45556 | 21864 ft | 347 kts | 11° |
| 2026-05-07 14:27 | 59.42886 | 11.47006 | 21437 ft | 345 kts | 11° |
| 2026-05-07 14:27 | 59.45161 | 11.48442 | 21020 ft | 342 kts | 11° |
| 2026-05-07 14:27 | 59.47424 | 11.49866 | 20592 ft | 340 kts | 11° |
| 2026-05-07 14:28 | 59.49673 | 11.51283 | 20177 ft | 339 kts | 11° |
| 2026-05-07 14:28 | 59.51912 | 11.52691 | 19787 ft | 337 kts | 11° |
| 2026-05-07 14:28 | 59.54136 | 11.54091 | 19408 ft | 335 kts | 12° |
| 2026-05-07 14:28 | 59.56349 | 11.55494 | 19022 ft | 333 kts | 12° |
| 2026-05-07 14:29 | 59.58550 | 11.56889 | 18657 ft | 331 kts | 12° |
| 2026-05-07 14:29 | 59.60738 | 11.58279 | 18286 ft | 330 kts | 12° |
| 2026-05-07 14:29 | 59.62918 | 11.59670 | 17881 ft | 328 kts | 12° |
| 2026-05-07 14:30 | 59.67266 | 11.62445 | 17133 ft | 324 kts | 12° |
| 2026-05-07 14:30 | 59.69407 | 11.63812 | 16769 ft | 322 kts | 12° |
| 2026-05-07 14:30 | 59.71536 | 11.65175 | 16428 ft | 320 kts | 13° |
| 2026-05-07 14:30 | 59.73647 | 11.66536 | 16084 ft | 318 kts | 13° |
| 2026-05-07 14:31 | 59.75749 | 11.67900 | 15747 ft | 317 kts | 13° |
| 2026-05-07 14:31 | 59.77838 | 11.69255 | 15420 ft | 315 kts | 13° |
| 2026-05-07 14:31 | 59.79916 | 11.70600 | 15101 ft | 313 kts | 13° |
| 2026-05-07 14:31 | 59.81981 | 11.71937 | 14776 ft | 311 kts | 14° |
| 2026-05-07 14:32 | 59.84043 | 11.73267 | 14408 ft | 312 kts | 14° |
| 2026-05-07 14:32 | 59.86112 | 11.74596 | 14014 ft | 313 kts | 14° |
| 2026-05-07 14:32 | 59.88185 | 11.75935 | 13587 ft | 313 kts | 14° |
| 2026-05-07 14:32 | 59.90257 | 11.77279 | 13148 ft | 313 kts | 14° |
| 2026-05-07 14:33 | 59.92331 | 11.78621 | 12709 ft | 313 kts | 15° |
| 2026-05-07 14:33 | 59.94402 | 11.79964 | 12302 ft | 312 kts | 15° |
| 2026-05-07 14:33 | 59.96465 | 11.81307 | 11880 ft | 312 kts | 15° |
| 2026-05-07 14:33 | 59.98523 | 11.82648 | 11470 ft | 311 kts | 15° |
| 2026-05-07 14:34 | 60.00576 | 11.83989 | 11039 ft | 310 kts | 15° |
| 2026-05-07 14:34 | 60.02616 | 11.85326 | 10644 ft | 308 kts | 15° |
| 2026-05-07 14:34 | 60.04650 | 11.86665 | 10242 ft | 307 kts | 16° |
| 2026-05-07 14:34 | 60.06674 | 11.88003 | 9833 ft | 305 kts | 16° |
| 2026-05-07 14:35 | 60.08682 | 11.89330 | 9389 ft | 303 kts | 16° |
| 2026-05-07 14:35 | 60.10671 | 11.90628 | 9085 ft | 296 kts | 14° |
| 2026-05-07 14:35 | 60.12631 | 11.91370 | 9070 ft | 278 kts | 6° |
| 2026-05-07 14:35 | 60.14493 | 11.91920 | 9075 ft | 262 kts | 6° |
| 2026-05-07 14:36 | 60.16248 | 11.92454 | 9082 ft | 249 kts | 6° |
| 2026-05-07 14:36 | 60.17948 | 11.92974 | 8876 ft | 245 kts | 6° |
| 2026-05-07 14:36 | 60.19631 | 11.93164 | 8556 ft | 240 kts | 347° |
| 2026-05-07 14:36 | 60.21154 | 11.91919 | 8188 ft | 237 kts | 328° |
| 2026-05-07 14:37 | 60.22557 | 11.90177 | 7814 ft | 237 kts | 326° |
| 2026-05-07 14:37 | 60.25314 | 11.86562 | 7127 ft | 236 kts | 325° |
| 2026-05-07 14:37 | 60.26682 | 11.84766 | 6794 ft | 234 kts | 326° |
| 2026-05-07 14:38 | 60.28042 | 11.82978 | 6424 ft | 233 kts | 326° |
| 2026-05-07 14:38 | 60.29393 | 11.81179 | 6082 ft | 233 kts | 326° |
| 2026-05-07 14:38 | 60.30741 | 11.79373 | 5737 ft | 232 kts | 325° |
| 2026-05-07 14:38 | 60.32083 | 11.77583 | 5406 ft | 231 kts | 325° |
| 2026-05-07 14:39 | 60.33419 | 11.75792 | 5075 ft | 230 kts | 326° |
| 2026-05-07 14:39 | 60.34750 | 11.74006 | 4734 ft | 230 kts | 326° |
| 2026-05-07 14:39 | 60.36076 | 11.72228 | 4418 ft | 228 kts | 325° |
| 2026-05-07 14:39 | 60.37391 | 11.70468 | 4101 ft | 227 kts | 324° |
| 2026-05-07 14:40 | 60.38441 | 11.68190 | 4004 ft | 223 kts | 294° |
| 2026-05-07 14:40 | 60.38821 | 11.65151 | 4010 ft | 225 kts | 277° |
| 2026-05-07 14:40 | 60.39002 | 11.62002 | 4007 ft | 226 kts | 276° |
| 2026-05-07 14:40 | 60.39155 | 11.58891 | 4008 ft | 216 kts | 275° |
| 2026-05-07 14:41 | 60.39298 | 11.55952 | 4010 ft | 208 kts | 275° |
| 2026-05-07 14:41 | 60.39438 | 11.53063 | 4011 ft | 205 kts | 275° |
| 2026-05-07 14:41 | 60.39576 | 11.50191 | 4013 ft | 206 kts | 275° |
| 2026-05-07 14:41 | 60.39716 | 11.47291 | 4012 ft | 207 kts | 275° |
| 2026-05-07 14:42 | 60.39854 | 11.44413 | 3929 ft | 204 kts | 275° |
| 2026-05-07 14:42 | 60.39990 | 11.41553 | 3669 ft | 204 kts | 275° |
| 2026-05-07 14:42 | 60.40125 | 11.38692 | 3416 ft | 205 kts | 275° |
| 2026-05-07 14:42 | 60.40257 | 11.35808 | 3156 ft | 206 kts | 274° |
| 2026-05-07 14:43 | 60.40124 | 11.32979 | 3024 ft | 200 kts | 258° |
| 2026-05-07 14:43 | 60.39800 | 11.30321 | 3005 ft | 189 kts | 255° |
| 2026-05-07 14:43 | 60.39465 | 11.27776 | 3034 ft | 185 kts | 256° |
| 2026-05-07 14:43 | 60.39125 | 11.25277 | 3014 ft | 184 kts | 255° |
| 2026-05-07 14:44 | 60.38788 | 11.22789 | 3014 ft | 183 kts | 256° |
| 2026-05-07 14:44 | 60.38276 | 11.20449 | 3009 ft | 184 kts | 236° |
| 2026-05-07 14:44 | 60.37368 | 11.18639 | 3006 ft | 185 kts | 214° |
| 2026-05-07 14:44 | 60.36187 | 11.17631 | 3010 ft | 182 kts | 197° |
| 2026-05-07 14:45 | 60.35056 | 11.16977 | 3015 ft | 155 kts | 198° |
| 2026-05-07 14:45 | 60.34057 | 11.16396 | 3009 ft | 145 kts | 198° |
| 2026-05-07 14:45 | 60.33101 | 11.15838 | 2979 ft | 142 kts | 197° |
| 2026-05-07 14:45 | 60.32158 | 11.15289 | 2861 ft | 140 kts | 198° |
| 2026-05-07 14:46 | 60.31215 | 11.14739 | 2693 ft | 141 kts | 198° |
| 2026-05-07 14:46 | 60.30280 | 11.14185 | 2477 ft | 139 kts | 197° |
| 2026-05-07 14:46 | 60.29349 | 11.13647 | 2303 ft | 139 kts | 197° |
| 2026-05-07 14:46 | 60.28419 | 11.13105 | 2144 ft | 139 kts | 197° |
| 2026-05-07 14:47 | 60.27495 | 11.12579 | 1932 ft | 138 kts | 196° |
| 2026-05-07 14:47 | 60.26577 | 11.12052 | 1732 ft | 137 kts | 197° |
| 2026-05-07 14:47 | 60.25662 | 11.11520 | 1536 ft | 137 kts | 197° |
| 2026-05-07 14:47 | 60.24749 | 11.10981 | 1324 ft | 137 kts | 197° |
| 2026-05-07 14:48 | 60.23836 | 11.10458 | 1153 ft | 136 kts | 197° |
| 2026-05-07 14:48 | 60.22928 | 11.09929 | 990 ft | 136 kts | 198° |
| 2026-05-07 14:48 | 60.22020 | 11.09411 | 805 ft | 135 kts | 198° |
| 2026-05-07 14:48 | 60.21130 | 11.08888 | 679 ft | 126 kts | 198° |
| 2026-05-07 14:49 | 60.20494 | 11.08526 | 677 ft | 72 kts | 197° |
| 2026-05-07 14:49 | 60.20109 | 11.08314 | 674 ft | 39 kts | 188° |
| 2026-05-07 14:49 | 60.19938 | 11.08333 | 673 ft | 14 kts | 159° |
| 2026-05-07 14:49 | 60.19898 | 11.08406 | 673 ft | 7 kts | 112° |
| 2026-05-07 14:50 | 60.19887 | 11.08501 | 673 ft | 7 kts | 103° |
| 2026-05-07 14:50 | 60.19898 | 11.08569 | 674 ft | 8 kts | 45° |
| 2026-05-07 14:50 | 60.19980 | 11.08625 | 675 ft | 13 kts | 15° |
| 2026-05-07 14:50 | 60.20068 | 11.08674 | 675 ft | 12 kts | 16° |
| 2026-05-07 14:51 | 60.20146 | 11.08719 | 676 ft | 11 kts | 16° |
| 2026-05-07 14:51 | 60.20210 | 11.08769 | 677 ft | 8 kts | 39° |
| 2026-05-07 14:51 | 60.20214 | 11.08862 | 678 ft | 6 kts | 112° |
| 2026-05-07 14:51 | 60.20197 | 11.08952 | 680 ft | 11 kts | 109° |
| 2026-05-07 14:52 | 60.20177 | 11.09093 | 681 ft | 11 kts | 103° |
| 2026-05-07 14:52 | 60.20153 | 11.09271 | 680 ft | 17 kts | 106° |
| 2026-05-07 14:52 | 60.20123 | 11.09483 | 680 ft | 15 kts | 105° |
| 2026-05-07 14:52 | 60.20097 | 11.09669 | 679 ft | 13 kts | 107° |
| 2026-05-07 14:53 | 60.20072 | 11.09837 | 684 ft | 13 kts | 106° |
| 2026-05-07 14:53 | 60.20045 | 11.10029 | 684 ft | 14 kts | 106° |
| 2026-05-07 14:53 | 60.20014 | 11.10236 | 684 ft | 18 kts | 106° |
| 2026-05-07 14:53 | 60.19980 | 11.10470 | 684 ft | 17 kts | 106° |
| 2026-05-07 14:54 | 60.19932 | 11.10596 | 684 ft | 10 kts | 175° |
| 2026-05-07 14:54 | 60.19865 | 11.10565 | 683 ft | 10 kts | 197° |
| 2026-05-07 14:54 | 60.19792 | 11.10522 | 682 ft | 13 kts | 196° |
| 2026-05-07 14:54 | 60.19706 | 11.10471 | 682 ft | 13 kts | 197° |
| 2026-05-07 14:55 | 60.19632 | 11.10428 | 682 ft | 6 kts | 195° |
| 2026-05-07 14:55 | 60.19615 | 11.10378 | 680 ft | 4 kts | 283° |
| 2026-05-07 14:55 | 60.19628 | 11.10301 | 679 ft | 7 kts | 287° |
| 2026-05-07 14:55 | 60.19640 | 11.10221 | 679 ft | 3 kts | 287° |
| 2026-05-07 14:56 | 60.19642 | 11.10206 | 680 ft | 0 kts | 287° |